Time;durP1;ratioP1;P1;durP2;ratioP2;P2;SDS_P1;SDS_P2;PMS_P1;PMS_P2;Temp;Humidity;BMP_temperature;BMP_pressure;BME280_temperature;BME280_humidity;BME280_pressure;Samples;Min_cycle;Max_cycle;Signal;HPM_P1;HPM_P2
2021/07/08 00:02:23;;;;;;;3.28;0.90;;;20.00;84.70;;;;;;5100259;28;27360;-51
2021/07/08 00:05:09;;;;;;;1.85;1.00;;;20.00;85.20;;;;;;5103955;28;27409;-57
2021/07/08 00:07:58;;;;;;;4.40;0.98;;;20.00;84.70;;;;;;5104185;28;27411;-54
2021/07/08 00:10:45;;;;;;;4.97;1.00;;;20.00;85.20;;;;;;5103285;28;27497;-56
2021/07/08 00:13:30;;;;;;;1.58;0.70;;;20.00;85.20;;;;;;5104014;28;27420;-56
2021/07/08 00:16:15;;;;;;;2.20;1.65;;;20.00;85.20;;;;;;5085902;28;27618;-54
2021/07/08 00:19:00;;;;;;;3.92;0.90;;;20.00;85.20;;;;;;5104332;28;27403;-53
2021/07/08 00:21:44;;;;;;;4.32;1.40;;;20.00;84.70;;;;;;5099848;28;27501;-51
2021/07/08 00:24:28;;;;;;;2.28;1.00;;;19.90;84.50;;;;;;5103850;28;27485;-56
2021/07/08 00:27:13;;;;;;;3.00;1.35;;;19.90;84.70;;;;;;5099852;28;27488;-54
2021/07/08 00:29:58;;;;;;;4.55;1.30;;;20.00;85.20;;;;;;5100092;28;27408;-52
2021/07/08 00:32:43;;;;;;;6.40;1.48;;;19.90;85.20;;;;;;5103379;28;27960;-52
2021/07/08 00:35:27;;;;;;;2.33;1.10;;;19.90;85.80;;;;;;5100816;28;27509;-52
2021/07/08 00:38:11;;;;;;;3.03;1.35;;;19.90;86.10;;;;;;5104090;28;27399;-52
2021/07/08 00:40:56;;;;;;;3.88;1.30;;;19.90;85.90;;;;;;5103244;28;27577;-52
2021/07/08 00:43:41;;;;;;;5.47;1.33;;;19.90;85.80;;;;;;5099521;28;27976;-54
2021/07/08 00:46:29;;;;;;;2.45;1.17;;;19.90;85.60;;;;;;5103903;28;27355;-53
2021/07/08 00:49:14;;;;;;;4.15;1.17;;;19.90;86.50;;;;;;5103742;28;27485;-53
2021/07/08 00:51:59;;;;;;;1.20;1.10;;;19.90;86.00;;;;;;5099571;28;27417;-54
2021/07/08 00:54:43;;;;;;;4.05;1.38;;;19.80;85.60;;;;;;5103543;28;27536;-53
2021/07/08 00:57:28;;;;;;;4.20;1.17;;;19.80;85.30;;;;;;5103341;28;27408;-55
2021/07/08 01:00:13;;;;;;;4.35;1.25;;;19.80;85.30;;;;;;5103390;28;27437;-54
2021/07/08 01:02:57;;;;;;;2.55;1.73;;;19.80;85.10;;;;;;5103773;28;27485;-51
2021/07/08 01:05:47;;;;;;;3.63;1.17;;;19.80;85.60;;;;;;5088598;28;27488;-52
2021/07/08 01:08:32;;;;;;;2.60;1.05;;;19.80;85.10;;;;;;5106848;28;27390;-54
2021/07/08 01:11:17;;;;;;;4.30;1.55;;;19.80;85.20;;;;;;5106459;28;27450;-55
2021/07/08 01:14:03;;;;;;;4.15;1.50;;;19.80;85.20;;;;;;5107005;28;27397;-55
2021/07/08 01:16:47;;;;;;;3.20;1.30;;;19.80;85.10;;;;;;5106940;28;27340;-53
2021/07/08 01:19:34;;;;;;;4.57;1.52;;;19.80;85.00;;;;;;5102886;28;27391;-52
2021/07/08 01:22:19;;;;;;;5.70;1.52;;;19.80;84.90;;;;;;5107278;28;27348;-55
2021/07/08 01:25:05;;;;;;;5.68;1.60;;;19.80;85.00;;;;;;5105536;28;27340;-54
2021/07/08 01:27:50;;;;;;;5.30;1.50;;;19.80;84.70;;;;;;5106720;28;27330;-55
2021/07/08 01:30:34;;;;;;;8.20;2.10;;;19.80;84.70;;;;;;5088320;28;27324;-55
2021/07/08 01:33:19;;;;;;;4.93;1.45;;;19.80;84.60;;;;;;5106340;28;27399;-56
2021/07/08 01:36:04;;;;;;;5.50;1.35;;;19.80;84.60;;;;;;5106972;28;27374;-55
2021/07/08 01:38:49;;;;;;;14.38;1.80;;;19.80;84.60;;;;;;5106683;28;27379;-54
2021/07/08 01:41:34;;;;;;;4.00;1.30;;;19.80;84.70;;;;;;5104997;28;27378;-56
2021/07/08 01:44:19;;;;;;;5.72;1.33;;;19.70;84.80;;;;;;5088418;28;26950;-56
2021/07/08 01:47:03;;;;;;;3.47;1.42;;;19.70;84.70;;;;;;5106824;28;26972;-55
2021/07/08 01:49:48;;;;;;;3.75;1.20;;;19.70;84.70;;;;;;5106477;28;28104;-55
2021/07/08 01:52:33;;;;;;;7.75;1.70;;;19.70;84.90;;;;;;5105595;28;27356;-55
2021/07/08 01:55:18;;;;;;;7.63;1.30;;;19.70;84.70;;;;;;5106625;28;27335;-53
2021/07/08 01:58:03;;;;;;;4.40;1.40;;;19.70;84.70;;;;;;5106310;28;27316;-56
2021/07/08 02:00:47;;;;;;;1.83;1.08;;;19.70;84.90;;;;;;5106037;28;27416;-54
2021/07/08 02:03:32;;;;;;;3.38;1.30;;;19.70;84.90;;;;;;5106488;28;27527;-56
2021/07/08 02:06:17;;;;;;;9.05;1.77;;;19.70;84.70;;;;;;5105485;28;27025;-57
2021/07/08 02:09:03;;;;;;;3.20;1.48;;;19.70;85.20;;;;;;5087981;28;27427;-56
2021/07/08 02:11:47;;;;;;;9.43;1.35;;;19.70;85.20;;;;;;5106179;28;27342;-56
2021/07/08 02:14:32;;;;;;;5.38;1.08;;;19.60;85.10;;;;;;5106360;28;27311;-55
2021/07/08 02:17:16;;;;;;;4.38;1.70;;;19.60;85.30;;;;;;5105880;28;27418;-56
2021/07/08 02:20:01;;;;;;;5.63;1.35;;;19.60;85.40;;;;;;5103803;28;27464;-55
2021/07/08 02:22:46;;;;;;;1.85;1.05;;;19.60;85.50;;;;;;5106001;28;27427;-56
2021/07/08 02:25:31;;;;;;;6.28;1.38;;;19.60;85.40;;;;;;5105844;28;27414;-56
2021/07/08 02:28:16;;;;;;;2.83;1.35;;;19.50;85.30;;;;;;5101931;28;27411;-56
2021/07/08 02:31:00;;;;;;;2.55;1.30;;;19.50;85.60;;;;;;5105889;28;27468;-56
2021/07/08 02:33:45;;;;;;;2.67;1.20;;;19.50;85.60;;;;;;5101677;28;27466;-56
2021/07/08 02:36:30;;;;;;;2.72;1.30;;;19.50;85.30;;;;;;5105700;28;27430;-55
2021/07/08 02:39:14;;;;;;;2.05;1.30;;;19.50;85.40;;;;;;5105979;28;27400;-57
2021/07/08 02:41:58;;;;;;;2.67;1.40;;;19.50;85.50;;;;;;5089741;28;27492;-57
2021/07/08 02:44:43;;;;;;;4.22;1.73;;;19.50;85.40;;;;;;5101644;28;27400;-57
2021/07/08 02:47:28;;;;;;;3.72;1.52;;;19.50;85.50;;;;;;5087495;28;27419;-57
2021/07/08 02:50:12;;;;;;;3.05;1.52;;;19.50;85.40;;;;;;5101420;28;27505;-58
2021/07/08 02:52:57;;;;;;;3.08;1.40;;;19.50;85.60;;;;;;5105702;28;27423;-57
2021/07/08 02:55:41;;;;;;;1.75;1.27;;;19.50;85.90;;;;;;5091035;28;27316;-57
2021/07/08 02:58:26;;;;;;;5.85;1.63;;;19.50;85.90;;;;;;5106292;28;27363;-56
2021/07/08 03:01:10;;;;;;;4.80;1.40;;;19.40;85.60;;;;;;5106320;28;27404;-56
2021/07/08 03:03:55;;;;;;;3.28;1.33;;;19.40;85.90;;;;;;5106285;28;27328;-56
2021/07/08 03:06:40;;;;;;;6.57;1.70;;;19.40;86.00;;;;;;5106441;28;27856;-56
2021/07/08 03:09:24;;;;;;;3.53;1.60;;;19.40;85.70;;;;;;5106139;28;27331;-57
2021/07/08 03:12:09;;;;;;;5.65;1.50;;;19.40;85.90;;;;;;5105861;28;27328;-56
2021/07/08 03:14:53;;;;;;;5.43;1.40;;;19.40;85.60;;;;;;5106404;28;27328;-57
2021/07/08 03:17:38;;;;;;;7.57;1.33;;;19.40;85.90;;;;;;5105928;28;27324;-57
2021/07/08 03:20:28;;;;;;;5.95;1.10;;;19.40;85.70;;;;;;5106031;28;27427;-56
2021/07/08 03:23:12;;;;;;;4.40;1.05;;;19.40;86.10;;;;;;5105957;28;27430;-57
2021/07/08 03:25:57;;;;;;;3.65;1.10;;;19.40;86.10;;;;;;5105736;28;27420;-57
2021/07/08 03:28:41;;;;;;;4.20;1.13;;;19.40;85.90;;;;;;5105808;28;27316;-57
2021/07/08 03:31:25;;;;;;;2.40;0.95;;;19.30;85.90;;;;;;5105230;27;27382;-57
2021/07/08 03:34:10;;;;;;;7.20;1.35;;;19.30;86.00;;;;;;5106050;28;27392;-57
2021/07/08 03:36:55;;;;;;;2.67;1.10;;;19.30;86.00;;;;;;5105713;28;26868;-57
2021/07/08 03:39:39;;;;;;;3.00;1.38;;;19.30;86.00;;;;;;5105009;28;27331;-57
2021/07/08 03:42:26;;;;;;;5.18;1.38;;;19.30;86.20;;;;;;5104779;28;27391;-57
2021/07/08 03:45:12;;;;;;;4.63;1.70;;;19.30;86.20;;;;;;5101623;28;27351;-57
2021/07/08 03:47:56;;;;;;;3.03;1.20;;;19.30;86.20;;;;;;5105521;28;26949;-57
2021/07/08 03:50:40;;;;;;;4.68;1.33;;;19.30;86.30;;;;;;5105459;28;27977;-59
2021/07/08 03:53:25;;;;;;;3.83;1.30;;;19.30;86.30;;;;;;5105730;28;27544;-57
2021/07/08 03:56:10;;;;;;;9.25;1.48;;;19.30;86.30;;;;;;5105712;28;27356;-57
2021/07/08 03:58:54;;;;;;;3.67;1.38;;;19.30;86.60;;;;;;5105379;28;27316;-57
2021/07/08 04:01:41;;;;;;;2.45;1.20;;;19.30;86.30;;;;;;5105193;28;27312;-57
2021/07/08 04:04:25;;;;;;;7.18;1.63;;;19.30;86.70;;;;;;5105542;28;27404;-57
2021/07/08 04:07:10;;;;;;;7.00;1.30;;;19.30;86.50;;;;;;5104798;28;27417;-57
2021/07/08 04:09:54;;;;;;;3.88;1.10;;;19.30;86.70;;;;;;5105235;28;27373;-57
2021/07/08 04:12:39;;;;;;;5.47;1.08;;;19.30;86.70;;;;;;5105108;28;27314;-57
2021/07/08 04:15:24;;;;;;;2.22;1.13;;;19.30;86.90;;;;;;5105359;28;27433;-57
2021/07/08 04:18:09;;;;;;;2.75;1.20;;;19.30;87.20;;;;;;5105395;28;27359;-57
2021/07/08 04:20:53;;;;;;;3.08;1.13;;;19.30;87.30;;;;;;5105043;28;27396;-57
2021/07/08 04:23:37;;;;;;;3.90;1.30;;;19.30;87.10;;;;;;5105211;28;27358;-58
2021/07/08 04:26:22;;;;;;;3.58;1.30;;;19.30;87.40;;;;;;5104989;28;27410;-58
2021/07/08 04:29:06;;;;;;;6.78;1.70;;;19.30;87.50;;;;;;5105300;28;27480;-58
2021/07/08 04:31:51;;;;;;;3.53;1.27;;;19.30;87.60;;;;;;5101916;28;27378;-57
2021/07/08 04:34:35;;;;;;;2.47;1.20;;;19.30;87.80;;;;;;5104346;28;27485;-58
2021/07/08 04:37:20;;;;;;;3.38;1.45;;;19.30;87.80;;;;;;5101002;28;27484;-58
2021/07/08 04:40:05;;;;;;;1.23;1.02;;;19.30;87.80;;;;;;5104671;28;27486;-58
2021/07/08 04:42:51;;;;;;;3.45;1.17;;;19.30;88.10;;;;;;5103695;27;27473;-58
2021/07/08 04:45:36;;;;;;;5.00;1.30;;;19.30;88.30;;;;;;5104872;28;27860;-58
2021/07/08 04:48:21;;;;;;;1.48;1.17;;;19.30;88.30;;;;;;5104582;28;27473;-58
2021/07/08 04:51:05;;;;;;;6.57;1.80;;;19.30;88.20;;;;;;5104651;28;27427;-58
2021/07/08 04:53:53;;;;;;;3.67;1.30;;;19.30;88.40;;;;;;5104807;28;26906;-57
2021/07/08 04:56:37;;;;;;;1.85;1.08;;;19.30;88.40;;;;;;5103998;28;27881;-58
2021/07/08 04:59:22;;;;;;;3.28;1.52;;;19.30;88.70;;;;;;5104408;28;27392;-58
2021/07/08 05:02:06;;;;;;;2.33;1.33;;;19.30;88.60;;;;;;5101225;28;26919;-58
2021/07/08 05:04:51;;;;;;;2.13;1.20;;;19.30;88.70;;;;;;5104402;28;27400;-58
2021/07/08 05:07:36;;;;;;;1.70;1.15;;;19.30;89.50;;;;;;5104630;28;27457;-58
2021/07/08 05:10:21;;;;;;;3.70;1.63;;;19.30;89.30;;;;;;5104589;28;27465;-58
2021/07/08 05:13:06;;;;;;;2.58;1.30;;;19.30;89.40;;;;;;5104359;28;27460;-58
2021/07/08 05:15:51;;;;;;;1.92;1.58;;;19.30;89.00;;;;;;5103543;28;27488;-57
2021/07/08 05:18:37;;;;;;;1.73;1.20;;;19.30;89.60;;;;;;5103615;28;27429;-57
2021/07/08 05:21:22;;;;;;;1.73;1.52;;;19.30;89.20;;;;;;5104177;28;27423;-58
2021/07/08 05:24:08;;;;;;;2.45;1.50;;;19.30;89.50;;;;;;5101311;28;27371;-58
2021/07/08 05:26:56;;;;;;;1.80;1.38;;;19.30;90.00;;;;;;5101029;28;27374;-57
2021/07/08 05:29:41;;;;;;;5.55;1.33;;;19.30;90.00;;;;;;5104373;28;27964;-58
2021/07/08 05:32:26;;;;;;;2.45;1.38;;;19.30;90.00;;;;;;5104323;28;27340;-57
2021/07/08 05:35:10;;;;;;;2.92;1.42;;;19.30;90.60;;;;;;5104053;28;27391;-59
2021/07/08 05:37:56;;;;;;;6.68;1.70;;;19.30;90.80;;;;;;5104048;28;26921;-59
2021/07/08 05:40:40;;;;;;;2.70;1.42;;;19.40;90.70;;;;;;5103080;28;27319;-58
2021/07/08 05:43:25;;;;;;;10.27;1.65;;;19.40;91.00;;;;;;5100228;28;27386;-58
2021/07/08 05:46:10;;;;;;;10.77;2.00;;;19.40;90.40;;;;;;5104735;28;27328;-58
2021/07/08 05:48:54;;;;;;;2.88;1.42;;;19.40;91.00;;;;;;5104605;28;27329;-59
2021/07/08 05:51:39;;;;;;;8.93;1.88;;;19.40;91.30;;;;;;5104620;28;27389;-59
2021/07/08 05:54:24;;;;;;;6.28;2.00;;;19.40;91.30;;;;;;5107224;27;27443;-60
2021/07/08 05:57:08;;;;;;;5.55;1.90;;;19.40;91.10;;;;;;5104076;28;27316;-59
2021/07/08 05:59:54;;;;;;;9.35;1.52;;;19.40;91.20;;;;;;5104238;28;27320;-59
2021/07/08 06:02:39;;;;;;;7.55;2.83;;;19.40;90.90;;;;;;5103918;28;27323;-60
2021/07/08 06:05:24;;;;;;;9.73;1.65;;;19.50;90.90;;;;;;5107481;28;27374;-58
2021/07/08 06:08:09;;;;;;;2.58;1.75;;;19.50;90.70;;;;;;5106700;28;27381;-57
2021/07/08 06:10:53;;;;;;;2.80;1.50;;;19.50;90.70;;;;;;5107428;28;27327;-57
2021/07/08 06:13:38;;;;;;;4.97;1.70;;;19.50;91.00;;;;;;5104059;28;27428;-57
2021/07/08 06:16:23;;;;;;;4.93;1.70;;;19.50;91.00;;;;;;5107026;28;27473;-56
2021/07/08 06:19:08;;;;;;;4.93;1.50;;;19.50;91.10;;;;;;5107012;28;27374;-57
2021/07/08 06:21:52;;;;;;;4.80;1.83;;;19.50;91.60;;;;;;5105854;28;27328;-57
2021/07/08 06:24:37;;;;;;;4.60;1.60;;;19.50;91.80;;;;;;5107370;28;27993;-57
2021/07/08 06:27:21;;;;;;;2.67;1.75;;;19.50;90.80;;;;;;5106833;28;27472;-57
2021/07/08 06:30:07;;;;;;;4.70;1.90;;;19.50;91.30;;;;;;5106050;28;27461;-57
2021/07/08 06:32:51;;;;;;;5.28;1.67;;;19.50;91.70;;;;;;5107031;28;27461;-57
2021/07/08 06:35:36;;;;;;;5.32;1.70;;;19.50;91.80;;;;;;5106715;28;27877;-57
2021/07/08 06:38:20;;;;;;;5.55;2.10;;;19.50;91.70;;;;;;5106620;28;27406;-57
2021/07/08 06:41:05;;;;;;;2.17;1.30;;;19.50;91.60;;;;;;5106015;28;27497;-57
2021/07/08 06:43:49;;;;;;;3.70;1.80;;;19.50;91.70;;;;;;5106855;28;27437;-57
2021/07/08 06:46:34;;;;;;;3.00;1.60;;;19.50;91.10;;;;;;5106248;28;27431;-57
2021/07/08 06:49:19;;;;;;;6.40;1.90;;;19.50;90.80;;;;;;5106758;28;27412;-57
2021/07/08 06:52:04;;;;;;;4.88;1.50;;;19.50;90.30;;;;;;5106727;28;27411;-57
2021/07/08 06:54:49;;;;;;;6.60;1.92;;;19.60;90.40;;;;;;5106694;28;27466;-57
2021/07/08 06:57:34;;;;;;;4.05;1.88;;;19.60;90.50;;;;;;5106622;28;27946;-57
2021/07/08 07:00:20;;;;;;;4.80;1.90;;;19.70;90.50;;;;;;5106188;28;27450;-57
2021/07/08 07:03:05;;;;;;;4.95;1.40;;;19.70;90.50;;;;;;5102418;28;27383;-57
2021/07/08 07:05:50;;;;;;;5.88;1.60;;;19.80;90.50;;;;;;5105594;27;27411;-57
2021/07/08 07:08:37;;;;;;;4.93;1.52;;;19.80;90.60;;;;;;5106207;28;27402;-57
2021/07/08 07:11:22;;;;;;;3.47;1.63;;;19.80;90.70;;;;;;5106124;28;27462;-57
2021/07/08 07:14:06;;;;;;;3.20;1.30;;;19.80;90.60;;;;;;5105982;28;27673;-57
2021/07/08 07:16:50;;;;;;;4.38;1.42;;;19.90;90.60;;;;;;5106049;28;27431;-57
2021/07/08 07:19:38;;;;;;;4.55;1.30;;;19.90;90.70;;;;;;5105873;28;27517;-57
2021/07/08 07:22:22;;;;;;;4.40;1.60;;;20.00;90.80;;;;;;5106192;28;27515;-57
2021/07/08 07:25:07;;;;;;;9.73;1.98;;;20.00;91.00;;;;;;5106282;28;27481;-57
2021/07/08 07:27:52;;;;;;;3.53;1.63;;;20.10;91.10;;;;;;5102861;28;27387;-57
2021/07/08 07:30:37;;;;;;;4.57;1.33;;;20.20;91.20;;;;;;5106153;28;27419;-57
2021/07/08 07:33:22;;;;;;;1.98;1.45;;;20.20;91.20;;;;;;5106072;28;27461;-57
2021/07/08 07:36:06;;;;;;;5.15;1.70;;;20.40;91.50;;;;;;5105314;28;27447;-57
2021/07/08 07:38:51;;;;;;;6.05;1.45;;;20.40;91.40;;;;;;5105990;28;27407;-57
2021/07/08 07:41:36;;;;;;;5.78;1.30;;;20.40;91.30;;;;;;5103701;28;28084;-57
2021/07/08 07:44:21;;;;;;;3.70;1.58;;;20.40;91.20;;;;;;5105855;28;27479;-57
2021/07/08 07:47:05;;;;;;;1.92;1.42;;;20.40;91.10;;;;;;5105613;28;27481;-57
2021/07/08 07:49:50;;;;;;;2.60;1.10;;;20.40;91.00;;;;;;5105607;28;27411;-57
2021/07/08 07:52:35;;;;;;;2.97;1.30;;;20.40;91.50;;;;;;5105490;28;27465;-58
2021/07/08 07:55:21;;;;;;;1.88;1.23;;;20.40;92.10;;;;;;5087054;28;27466;-57
2021/07/08 07:58:05;;;;;;;2.47;1.70;;;20.40;92.20;;;;;;5105492;28;27482;-57
2021/07/08 08:00:50;;;;;;;3.83;1.80;;;20.50;92.20;;;;;;5105184;28;27411;-57
2021/07/08 08:03:35;;;;;;;3.85;1.27;;;20.50;92.30;;;;;;5101980;28;27469;-57
2021/07/08 08:09:25;;;;;;;4.97;1.42;;;20.70;91.90;;;;;;5095948;27;27510;-57
2021/07/08 08:12:09;;;;;;;6.90;1.83;;;20.80;91.90;;;;;;5105144;28;27462;-57
2021/07/08 08:14:54;;;;;;;6.88;1.75;;;20.80;92.20;;;;;;5105166;28;27457;-57
2021/07/08 08:17:38;;;;;;;1.88;1.50;;;20.90;92.20;;;;;;5104242;27;27521;-57
2021/07/08 08:20:23;;;;;;;5.22;1.70;;;21.00;92.30;;;;;;5104953;28;27465;-57
2021/07/08 08:23:07;;;;;;;2.83;1.38;;;21.10;92.60;;;;;;5104983;28;27593;-57
2021/07/08 08:25:51;;;;;;;2.47;1.60;;;21.10;92.40;;;;;;5104955;28;27408;-57
2021/07/08 08:28:36;;;;;;;2.30;1.10;;;21.20;92.60;;;;;;5105197;28;27367;-57
2021/07/08 08:31:20;;;;;;;4.05;1.27;;;21.30;92.80;;;;;;5104943;28;27351;-57
2021/07/08 08:34:05;;;;;;;3.17;1.65;;;21.40;93.20;;;;;;5104889;28;27370;-57
2021/07/08 08:36:50;;;;;;;3.95;1.30;;;21.40;93.30;;;;;;5104306;28;27327;-57
2021/07/08 08:39:34;;;;;;;1.55;1.23;;;21.50;93.40;;;;;;5104950;28;27361;-57
2021/07/08 08:42:19;;;;;;;2.05;1.30;;;21.50;93.10;;;;;;5103354;28;27351;-57
2021/07/08 08:45:07;;;;;;;3.72;1.40;;;21.60;93.40;;;;;;5104681;28;27361;-57
2021/07/08 08:48:06;;;;;;;1.77;1.17;;;21.70;93.60;;;;;;5104634;28;27356;-57
2021/07/08 08:50:50;;;;;;;2.40;1.30;;;21.80;93.30;;;;;;5103837;28;27423;-57
2021/07/08 08:53:35;;;;;;;1.05;0.95;;;21.80;92.90;;;;;;5104930;28;27422;-57
2021/07/08 08:56:20;;;;;;;7.32;1.25;;;21.80;93.20;;;;;;5104587;28;27403;-57
2021/07/08 08:59:05;;;;;;;1.67;1.20;;;21.90;93.20;;;;;;5104805;28;27999;-57
2021/07/08 09:02:13;;;;;;;4.30;1.50;;;21.90;93.40;;;;;;5101104;28;27372;-57
2021/07/08 09:05:00;;;;;;;2.95;1.60;;;21.90;93.40;;;;;;5104609;28;27367;-57
2021/07/08 09:07:44;;;;;;;1.48;1.33;;;21.90;92.90;;;;;;5100631;28;27385;-57
2021/07/08 09:10:29;;;;;;;4.65;1.50;;;21.80;92.90;;;;;;5103640;28;27841;-57
2021/07/08 09:13:14;;;;;;;5.03;1.80;;;21.80;92.50;;;;;;5103585;28;27415;-58
2021/07/08 09:16:12;;;;;;;2.00;1.80;;;21.70;92.70;;;;;;5104306;28;27347;-57
2021/07/08 09:18:58;;;;;;;2.88;1.60;;;21.70;92.70;;;;;;5104303;28;27463;-57
2021/07/08 09:21:44;;;;;;;4.72;2.30;;;21.60;92.80;;;;;;5103906;28;27397;-57
2021/07/08 09:24:31;;;;;;;2.28;1.65;;;21.60;92.60;;;;;;5104422;28;27505;-57
2021/07/08 09:27:15;;;;;;;1.63;1.45;;;21.60;92.90;;;;;;5104267;27;27481;-57
2021/07/08 09:30:00;;;;;;;2.08;1.45;;;21.50;92.50;;;;;;5107210;28;27586;-57
2021/07/08 09:32:44;;;;;;;2.00;1.45;;;21.50;92.50;;;;;;5106936;28;27485;-56
2021/07/08 09:35:39;;;;;;;1.27;1.17;;;21.50;92.50;;;;;;5107632;28;27443;-57
2021/07/08 09:38:24;;;;;;;1.60;1.50;;;21.50;92.50;;;;;;5107697;28;27482;-56
2021/07/08 09:41:21;;;;;;;1.70;1.23;;;21.50;92.30;;;;;;5106897;28;27504;-56
2021/07/08 09:44:21;;;;;;;1.90;1.20;;;21.50;92.50;;;;;;5107814;28;27461;-57
2021/07/08 09:47:27;;;;;;;4.05;1.45;;;21.50;92.20;;;;;;5107052;28;27392;-57
2021/07/08 09:50:14;;;;;;;4.18;1.52;;;21.50;91.80;;;;;;5107562;28;27347;-56
2021/07/08 09:53:20;;;;;;;1.80;1.70;;;21.50;92.00;;;;;;5107466;28;27393;-56
2021/07/08 09:58:54;;;;;;;2.13;1.92;;;21.60;92.60;;;;;;5105981;28;27473;-56
2021/07/08 10:01:39;;;;;;;2.38;1.88;;;21.60;92.80;;;;;;5107316;28;27331;-56
2021/07/08 10:04:24;;;;;;;2.97;2.03;;;21.70;92.80;;;;;;5107572;28;27358;-56
2021/07/08 10:07:09;;;;;;;2.10;1.90;;;21.80;93.20;;;;;;5088724;28;27351;-57
2021/07/08 10:09:53;;;;;;;2.75;2.00;;;21.80;93.40;;;;;;5106414;28;27441;-56
2021/07/08 10:12:38;;;;;;;2.22;2.00;;;21.90;93.50;;;;;;5107414;28;27338;-56
2021/07/08 10:15:23;;;;;;;2.83;2.05;;;21.90;93.30;;;;;;5107376;28;27318;-56
2021/07/08 10:18:12;;;;;;;2.35;2.13;;;22.00;93.20;;;;;;5102936;28;27864;-57
2021/07/08 10:20:57;;;;;;;2.30;1.70;;;22.00;92.80;;;;;;5106716;28;27324;-57
2021/07/08 10:23:42;;;;;;;2.45;2.08;;;21.90;92.90;;;;;;5106864;28;27326;-55
2021/07/08 10:26:26;;;;;;;2.08;1.80;;;22.00;93.10;;;;;;5106163;28;27344;-56
2021/07/08 10:29:14;;;;;;;2.25;2.05;;;22.00;93.30;;;;;;5106328;28;27385;-56
2021/07/08 10:31:59;;;;;;;2.40;2.00;;;22.00;93.30;;;;;;5106255;28;27406;-57
2021/07/08 10:34:50;;;;;;;2.90;1.92;;;22.00;93.30;;;;;;5106047;28;27434;-56
2021/07/08 10:37:39;;;;;;;6.10;1.73;;;22.00;93.60;;;;;;5106979;28;27374;-56
2021/07/08 10:40:28;;;;;;;2.22;2.03;;;22.10;93.50;;;;;;5104107;28;27541;-57
2021/07/08 10:43:13;;;;;;;2.50;1.83;;;22.10;93.10;;;;;;5106646;28;27472;-56
2021/07/08 10:46:04;;;;;;;2.65;1.75;;;22.10;92.80;;;;;;5106636;28;27332;-56
2021/07/08 10:48:50;;;;;;;3.95;1.83;;;22.10;93.00;;;;;;5106257;28;27418;-56
2021/07/08 10:51:36;;;;;;;2.30;1.80;;;22.10;92.70;;;;;;5106462;28;27485;-57
2021/07/08 10:54:27;;;;;;;2.25;1.90;;;22.10;93.00;;;;;;5106352;28;27420;-56
2021/07/08 10:57:37;;;;;;;8.23;1.80;;;22.10;92.80;;;;;;5103128;28;27372;-56
2021/07/08 11:00:54;;;;;;;2.30;2.00;;;22.10;92.50;;;;;;5106480;28;27522;-58
2021/07/08 11:03:43;;;;;;;2.65;2.10;;;22.10;92.10;;;;;;5096259;28;27361;-56
2021/07/08 11:06:36;;;;;;;3.15;1.60;;;22.10;92.20;;;;;;5102946;28;27458;-56
2021/07/08 11:09:21;;;;;;;2.17;1.98;;;22.10;92.40;;;;;;5106325;28;27394;-56
2021/07/08 11:12:06;;;;;;;1.70;1.60;;;22.10;92.60;;;;;;5106201;28;27322;-56
2021/07/08 11:14:51;;;;;;;2.30;1.70;;;22.10;92.50;;;;;;5105603;28;27965;-56
2021/07/08 11:17:40;;;;;;;2.05;1.85;;;22.10;92.10;;;;;;5104738;28;28083;-56
2021/07/08 11:20:32;;;;;;;2.85;1.67;;;22.10;92.20;;;;;;5105906;28;27481;-56
2021/07/08 11:23:39;;;;;;;3.00;1.85;;;22.20;92.50;;;;;;5106080;28;27395;-57
2021/07/08 11:27:02;;;;;;;3.28;1.80;;;22.20;92.60;;;;;;5105903;28;27833;-57
2021/07/08 11:29:58;;;;;;;1.98;1.77;;;22.40;92.90;;;;;;5106131;28;27402;-56
2021/07/08 11:35:39;;;;;;;3.33;1.73;;;22.50;93.10;;;;;;5102802;28;27399;-56
2021/07/08 11:38:25;;;;;;;4.28;1.60;;;22.50;92.60;;;;;;5106052;28;27497;-56
2021/07/08 11:41:10;;;;;;;2.22;1.67;;;22.40;91.90;;;;;;5104924;28;27559;-56
2021/07/08 11:43:55;;;;;;;1.42;1.33;;;22.40;92.40;;;;;;5105166;28;27607;-56
2021/07/08 11:46:40;;;;;;;3.08;1.35;;;22.40;92.40;;;;;;5104860;28;27496;-56
2021/07/08 11:49:26;;;;;;;12.40;1.80;;;22.50;92.40;;;;;;5105069;28;27481;-57
2021/07/08 11:52:27;;;;;;;3.00;1.65;;;22.50;92.40;;;;;;5105332;27;27436;-56
2021/07/08 11:55:12;;;;;;;3.13;1.50;;;22.50;92.70;;;;;;5105494;28;27473;-56
2021/07/08 11:58:03;;;;;;;1.50;1.40;;;22.60;92.90;;;;;;5105709;28;27320;-56
2021/07/08 12:00:49;;;;;;;2.05;1.70;;;22.70;93.20;;;;;;5105122;28;27428;-56
2021/07/08 12:03:35;;;;;;;1.80;1.70;;;22.80;93.30;;;;;;5102009;28;27336;-57
2021/07/08 12:06:27;;;;;;;2.17;1.60;;;22.80;93.20;;;;;;5105656;28;27367;-56
2021/07/08 12:09:13;;;;;;;6.82;1.75;;;22.90;93.70;;;;;;5105222;28;27443;-56
2021/07/08 12:12:00;;;;;;;3.10;1.52;;;22.90;93.30;;;;;;5104109;28;27447;-56
2021/07/08 12:14:45;;;;;;;2.05;1.65;;;23.00;93.00;;;;;;5105147;28;27383;-56
2021/07/08 12:17:31;;;;;;;2.05;1.55;;;23.00;93.00;;;;;;5104491;28;27377;-56
2021/07/08 12:20:16;;;;;;;2.65;2.42;;;23.00;93.20;;;;;;5104960;28;27395;-56
2021/07/08 12:23:04;;;;;;;1.73;1.63;;;23.10;93.20;;;;;;5105244;28;27383;-56
2021/07/08 12:25:49;;;;;;;1.80;1.55;;;23.10;92.70;;;;;;5105237;28;27410;-56
2021/07/08 12:28:34;;;;;;;2.65;1.40;;;23.20;93.40;;;;;;5104999;28;27423;-57
2021/07/08 12:31:20;;;;;;;1.90;1.80;;;23.30;93.50;;;;;;5105191;28;27441;-56
2021/07/08 12:34:05;;;;;;;1.65;1.50;;;23.30;94.00;;;;;;5104869;28;27411;-57
2021/07/08 12:36:50;;;;;;;1.92;1.83;;;23.40;94.30;;;;;;5105048;28;27442;-56
2021/07/08 12:39:35;;;;;;;3.50;1.63;;;23.50;94.10;;;;;;5104668;28;27411;-56
2021/07/08 12:42:24;;;;;;;1.55;1.45;;;23.50;93.80;;;;;;5104149;28;27479;-56
2021/07/08 12:45:10;;;;;;;1.85;1.75;;;23.60;93.80;;;;;;5104890;28;27359;-56
2021/07/08 12:47:56;;;;;;;2.35;1.50;;;23.60;93.70;;;;;;5104629;28;27406;-56
2021/07/08 12:50:43;;;;;;;3.13;1.75;;;23.60;93.50;;;;;;5104210;28;27376;-58
2021/07/08 12:53:28;;;;;;;2.38;1.60;;;23.60;93.60;;;;;;5104559;28;27427;-56
2021/07/08 12:56:13;;;;;;;2.05;1.30;;;23.60;93.10;;;;;;5104481;28;27327;-56
2021/07/08 12:58:58;;;;;;;2.63;1.60;;;23.60;93.20;;;;;;5104797;28;27322;-56
2021/07/08 13:01:43;;;;;;;2.88;1.80;;;23.60;93.60;;;;;;5104208;28;27411;-56
2021/07/08 13:05:07;;;;;;;1.30;1.20;;;23.70;93.80;;;;;;5103147;28;27331;-56
2021/07/08 13:07:58;;;;;;;2.60;1.23;;;23.70;93.60;;;;;;5104379;28;27480;-57
2021/07/08 13:10:47;;;;;;;2.08;1.00;;;23.80;93.30;;;;;;5089392;28;27364;-59
2021/07/08 13:13:40;;;;;;;2.30;1.67;;;23.80;93.10;;;;;;5104940;28;27655;-57
2021/07/08 13:16:32;;;;;;;1.52;1.23;;;23.90;93.00;;;;;;5104407;28;27401;-58
2021/07/08 13:19:21;;;;;;;2.13;1.60;;;24.00;92.90;;;;;;5074437;28;27376;-58
2021/07/08 13:22:22;;;;;;;1.77;1.10;;;24.20;93.10;;;;;;5074116;28;27447;-57
2021/07/08 13:25:20;;;;;;;2.42;1.50;;;24.40;93.40;;;;;;5102803;28;26944;-59
2021/07/08 13:28:31;;;;;;;1.70;1.17;;;24.60;94.10;;;;;;5088616;28;27522;-57
2021/07/08 13:31:19;;;;;;;2.00;1.20;;;24.70;94.30;;;;;;5102882;28;27937;-56
2021/07/08 13:34:12;;;;;;;1.17;1.08;;;24.70;94.10;;;;;;5102546;28;27459;-58
2021/07/08 13:37:01;;;;;;;2.08;1.30;;;24.70;93.80;;;;;;5102608;28;27360;-57
2021/07/08 13:39:51;;;;;;;3.35;1.02;;;24.70;93.40;;;;;;5071474;28;27377;-58
2021/07/08 13:42:39;;;;;;;1.40;1.10;;;24.60;93.00;;;;;;5087068;28;28066;-57
2021/07/08 13:45:31;;;;;;;5.00;1.23;;;24.50;92.10;;;;;;5088074;28;27450;-57
2021/07/08 13:48:25;;;;;;;0.80;0.75;;;24.40;91.80;;;;;;5102208;28;27440;-55
2021/07/08 13:51:18;;;;;;;1.05;1.00;;;24.30;91.70;;;;;;5088737;28;27459;-58
2021/07/08 13:54:07;;;;;;;1.30;1.20;;;24.20;91.40;;;;;;5056632;28;27935;-57
2021/07/08 13:56:59;;;;;;;1.42;1.10;;;24.00;91.30;;;;;;5088032;28;27550;-57
2021/07/08 14:00:00;;;;;;;1.25;1.15;;;24.00;91.20;;;;;;5102222;28;27522;-57
2021/07/08 14:02:51;;;;;;;1.35;0.95;;;23.90;90.80;;;;;;5102295;28;27341;-58
2021/07/08 14:05:47;;;;;;;3.05;0.95;;;23.90;90.90;;;;;;5100794;28;27377;-56
2021/07/08 14:08:39;;;;;;;1.52;0.82;;;23.90;91.20;;;;;;5103788;28;27437;-55
2021/07/08 14:11:36;;;;;;;1.27;1.17;;;23.90;91.00;;;;;;5104049;28;27411;-57
2021/07/08 14:14:28;;;;;;;0.82;0.80;;;24.00;91.20;;;;;;5104868;27;27522;-58
2021/07/08 14:17:20;;;;;;;1.17;1.08;;;24.10;89.40;;;;;;5106677;28;27398;-58
2021/07/08 14:20:18;;;;;;;1.67;1.05;;;24.20;89.80;;;;;;5089654;28;27406;-57
2021/07/08 14:23:09;;;;;;;0.85;0.85;;;24.20;90.40;;;;;;5092179;28;27516;-58
2021/07/08 14:26:03;;;;;;;1.27;0.90;;;24.20;90.00;;;;;;5092755;28;27502;-55
2021/07/08 14:29:01;;;;;;;0.88;0.60;;;24.20;88.50;;;;;;5106233;28;27360;-58
2021/07/08 14:31:53;;;;;;;1.30;1.20;;;24.10;87.90;;;;;;5106855;28;27537;-58
2021/07/08 14:35:05;;;;;;;0.80;0.80;;;24.10;86.50;;;;;;5107175;28;27344;-57
2021/07/08 14:37:59;;;;;;;1.02;0.93;;;24.00;86.40;;;;;;5095208;28;27447;-56